createdAt,value
2019-04-25T00:00:38.036Z,99776.69
2019-04-25T00:03:07.686Z,99791.10
2019-04-25T00:05:37.220Z,99790.05
2019-04-25T00:08:07.255Z,99792.88
2019-04-25T00:10:37.782Z,99802.59
2019-04-25T00:13:07.622Z,99798.32
2019-04-25T00:15:38.224Z,99797.02
2019-04-25T00:18:07.735Z,99797.48
2019-04-25T00:20:39.066Z,99802.34
2019-04-25T00:23:22.279Z,99807.23
2019-04-25T00:26:02.017Z,99816.75
2019-04-25T00:28:31.691Z,99803.84
2019-04-25T00:31:02.127Z,99806.78
2019-04-25T00:33:31.754Z,99809.61
2019-04-25T00:36:02.034Z,99810.91
2019-04-25T00:38:32.569Z,99796.89
2019-04-25T00:41:02.129Z,99798.41
2019-04-25T00:43:32.430Z,99786.81
2019-04-25T00:46:02.691Z,99791.58
2019-04-25T00:48:32.454Z,99779.08
2019-04-25T00:51:02.010Z,99772.64
2019-04-25T00:53:32.352Z,99777.93
2019-04-25T00:56:02.357Z,99770.28
2019-04-25T00:58:43.978Z,99752.73
2019-04-25T01:01:31.854Z,99751.44
2019-04-25T01:04:02.297Z,99755.17
2019-04-25T01:06:32.004Z,99773.66
2019-04-25T01:09:02.341Z,99772.73
2019-04-25T01:11:32.081Z,99772.16
2019-04-25T01:14:02.159Z,99770.63
2019-04-25T01:16:31.904Z,99771.19
2019-04-25T01:19:01.467Z,99777.89
2019-04-25T01:21:31.310Z,99779.11
2019-04-25T01:24:01.018Z,99769.11
2019-04-25T01:26:30.570Z,99782.28
2019-04-25T01:29:00.449Z,99787.70
2019-04-25T01:31:29.985Z,99784.09
2019-04-25T01:33:59.576Z,99797.67
2019-04-25T01:36:47.097Z,99793.83
2019-04-25T01:39:25.292Z,99799.82
2019-04-25T01:42:05.498Z,99800.55
2019-04-25T01:44:43.999Z,99798.52
2019-04-25T01:47:14.553Z,99803.44
2019-04-25T01:49:44.066Z,99814.94
2019-04-25T01:52:13.776Z,99829.25
2019-04-25T01:54:43.793Z,99842.44
2019-04-25T01:57:14.320Z,99855.69
2019-04-25T01:59:44.017Z,99862.03
2019-04-25T02:02:15.139Z,99861.11
2019-04-25T02:04:45.601Z,99862.61
2019-04-25T02:07:15.206Z,99857.91
2019-04-25T02:09:44.741Z,99850.30
2019-04-25T02:12:25.180Z,99852.91
2019-04-25T02:14:56.020Z,99863.72
2019-04-25T02:17:26.286Z,99856.34
2019-04-25T02:19:56.736Z,99859.72
2019-04-25T02:22:27.414Z,99853.64
2019-04-25T02:24:57.145Z,99845.80
2019-04-25T02:27:26.762Z,99839.61
2019-04-25T02:29:57.216Z,99834.48
2019-04-25T02:32:27.010Z,99836.33
2019-04-25T02:35:00.536Z,99841.02
2019-04-25T02:37:28.061Z,99835.97
2019-04-25T02:39:59.796Z,99841.20
2019-04-25T02:42:28.956Z,99839.06
2019-04-25T02:45:06.724Z,99837.21
2019-04-25T02:47:46.342Z,99839.73
2019-04-25T02:50:24.634Z,99848.78
2019-04-25T02:52:57.434Z,99841.70
2019-04-25T02:55:33.531Z,99837.77
2019-04-25T02:57:58.443Z,99828.14
2019-04-25T03:00:46.057Z,99830.38
2019-04-25T03:03:01.213Z,99835.14
2019-04-25T03:05:30.785Z,99831.98
2019-04-25T03:08:01.457Z,99838.59
2019-04-25T03:10:31.441Z,99832.81
2019-04-25T03:13:02.058Z,99843.20
2019-04-25T03:15:34.192Z,99829.84
2019-04-25T03:18:05.736Z,99835.89
2019-04-25T03:20:37.450Z,99830.88
2019-04-25T03:23:14.699Z,99837.69
2019-04-25T03:25:44.270Z,99846.16
2019-04-25T03:28:15.524Z,99848.41
2019-04-25T03:30:45.573Z,99853.73
2019-04-25T03:33:19.724Z,99855.70
2019-04-25T03:35:46.385Z,99855.50
2019-04-25T03:38:15.919Z,99849.89
2019-04-25T03:40:45.453Z,99851.28
2019-04-25T03:43:15.087Z,99854.75
2019-04-25T03:45:45.319Z,99846.60
2019-04-25T03:48:15.147Z,99849.06
2019-04-25T03:50:44.692Z,99848.87
2019-04-25T03:53:14.373Z,99850.73
2019-04-25T03:55:44.384Z,99857.19
2019-04-25T03:58:14.644Z,99851.95
2019-04-25T04:00:44.972Z,99857.65
2019-04-25T04:03:15.244Z,99859.69
2019-04-25T04:05:44.829Z,99861.19
2019-04-25T04:08:15.757Z,99869.86
2019-04-25T04:10:45.536Z,99875.47
2019-04-25T04:13:15.859Z,99874.73
2019-04-25T04:15:45.508Z,99876.32
2019-04-25T04:18:17.403Z,99877.16
2019-04-25T04:20:48.859Z,99878.47
2019-04-25T04:23:23.256Z,99873.59
2019-04-25T04:25:54.624Z,99879.67
2019-04-25T04:28:24.333Z,99868.55
2019-04-25T04:30:54.149Z,99870.43
2019-04-25T04:33:31.879Z,99875.36
2019-04-25T04:35:55.069Z,99872.20
2019-04-25T04:38:24.594Z,99872.67
2019-04-25T04:40:55.148Z,99874.14
2019-04-25T04:43:25.644Z,99879.86
2019-04-25T04:45:55.274Z,99885.38
2019-04-25T04:48:24.872Z,99884.41
2019-04-25T04:50:54.417Z,99881.98
2019-04-25T04:53:24.072Z,99884.41
2019-04-25T04:55:54.374Z,99882.42
2019-04-25T04:58:25.124Z,99879.72
2019-04-25T05:00:54.696Z,99872.25
2019-04-25T05:03:26.717Z,99873.56
2019-04-25T05:06:15.329Z,99870.37
2019-04-25T05:08:49.623Z,99871.21
2019-04-25T05:11:19.907Z,99878.76
2019-04-25T05:13:49.471Z,99888.66
2019-04-25T05:16:19.848Z,99891.08
2019-04-25T05:18:49.365Z,99894.23
2019-04-25T05:21:19.008Z,99892.73
2019-04-25T05:23:48.886Z,99891.12
2019-04-25T05:26:18.967Z,99887.11
2019-04-25T05:28:48.500Z,99893.27
2019-04-25T05:31:22.460Z,99902.97
2019-04-25T05:33:53.558Z,99906.70
2019-04-25T05:36:25.099Z,99911.70
2019-04-25T05:38:54.612Z,99906.38
2019-04-25T05:41:28.627Z,99911.52
2019-04-25T05:43:58.167Z,99914.70
2019-04-25T05:46:27.681Z,99909.99
2019-04-25T05:48:57.240Z,99904.69
2019-04-25T05:51:26.764Z,99913.34
2019-04-25T05:53:56.315Z,99910.15
2019-04-25T05:56:26.934Z,99915.71
2019-04-25T05:58:57.079Z,99915.45
2019-04-25T06:01:29.137Z,99907.59
2019-04-25T06:03:57.996Z,99898.65
2019-04-25T06:06:28.251Z,99902.59
2019-04-25T06:09:01.812Z,99912.67
2019-04-25T06:11:37.951Z,99915.44
2019-04-25T06:14:08.683Z,99912.85
2019-04-25T06:16:39.575Z,99922.14
2019-04-25T06:19:14.289Z,99925.75
2019-04-25T06:21:43.536Z,99923.34
2019-04-25T06:24:15.443Z,99926.17
2019-04-25T06:26:50.356Z,99924.32
2019-04-25T06:29:20.504Z,99925.70
2019-04-25T06:31:50.072Z,99925.31
2019-04-25T06:34:19.971Z,99936.11
2019-04-25T06:36:49.714Z,99933.92
2019-04-25T06:39:20.313Z,99934.98
2019-04-25T06:41:49.915Z,99933.56
2019-04-25T06:44:39.309Z,99931.27
2019-04-25T06:47:08.938Z,99933.66
2019-04-25T06:49:40.203Z,99944.94
2019-04-25T06:52:09.801Z,99947.67
2019-04-25T06:54:39.466Z,99946.83
2019-04-25T06:57:09.458Z,99943.00
2019-04-25T06:59:41.401Z,99947.04
2019-04-25T07:02:10.402Z,99951.52
2019-04-25T07:04:40.256Z,99941.56
2019-04-25T07:07:12.651Z,99935.34
2019-04-25T07:09:41.238Z,99937.98
2019-04-25T07:12:10.884Z,99940.61
2019-04-25T07:14:40.433Z,99935.45
2019-04-25T07:17:10.067Z,99941.09
2019-04-25T07:19:39.693Z,99941.31
2019-04-25T07:22:09.191Z,99948.12
2019-04-25T07:24:38.733Z,99946.67
2019-04-25T07:27:21.763Z,99950.33
2019-04-25T07:29:55.801Z,99954.02
2019-04-25T07:32:31.095Z,99958.32
2019-04-25T07:35:00.707Z,99964.50
2019-04-25T07:37:30.251Z,99963.33
2019-04-25T07:39:59.792Z,99965.97
2019-04-25T07:42:29.832Z,99956.86
2019-04-25T07:44:59.444Z,99960.50
2019-04-25T07:47:29.347Z,99981.42
2019-04-25T07:49:58.996Z,99970.66
2019-04-25T07:52:28.862Z,99972.47
2019-04-25T07:54:58.383Z,99985.09
2019-04-25T07:57:28.008Z,99974.50
2019-04-25T07:59:57.525Z,99963.94
2019-04-25T08:02:27.956Z,99967.92
2019-04-25T08:04:57.590Z,99970.59
2019-04-25T08:07:28.036Z,99966.07
2019-04-25T08:09:57.613Z,99964.75
2019-04-25T08:12:28.263Z,99967.84
2019-04-25T08:14:59.493Z,99971.34
2019-04-25T08:17:46.765Z,99970.84
2019-04-25T08:20:17.132Z,99971.86
2019-04-25T08:22:55.459Z,99984.20
2019-04-25T08:25:18.728Z,99997.02
2019-04-25T08:27:48.209Z,99983.04
2019-04-25T08:30:17.812Z,99987.34
2019-04-25T08:32:47.593Z,99987.30
2019-04-25T08:35:17.144Z,99985.03
2019-04-25T08:37:46.666Z,99989.91
2019-04-25T08:40:16.843Z,100000.09
2019-04-25T08:42:47.495Z,100002.27
2019-04-25T08:45:17.850Z,100002.08
2019-04-25T08:47:47.632Z,100005.20
2019-04-25T08:50:37.520Z,99999.84
2019-04-25T08:53:06.113Z,100016.37
2019-04-25T08:55:38.443Z,100008.16
2019-04-25T08:58:18.615Z,100010.46
2019-04-25T09:01:01.385Z,99994.11
2019-04-25T09:03:38.964Z,100005.06
2019-04-25T09:06:09.426Z,99989.84
2019-04-25T09:08:39.454Z,100000.80
2019-04-25T09:11:09.159Z,100015.80
2019-04-25T09:13:39.553Z,99996.42
2019-04-25T09:16:09.167Z,100011.30
2019-04-25T09:18:38.821Z,100008.91
2019-04-25T09:21:08.414Z,100027.74
2019-04-25T09:23:39.646Z,100016.46
2019-04-25T09:26:09.202Z,100014.13
2019-04-25T09:28:40.587Z,100018.71
2019-04-25T09:31:10.110Z,100018.30
2019-04-25T09:33:39.652Z,100002.28
2019-04-25T09:36:09.241Z,100010.73
2019-04-25T09:38:39.473Z,100004.13
2019-04-25T09:41:08.926Z,99996.56
2019-04-25T09:43:38.468Z,99996.16
2019-04-25T09:46:09.729Z,99999.45
2019-04-25T09:48:46.855Z,99993.09
2019-04-25T09:51:36.256Z,99995.06
2019-04-25T09:54:07.861Z,99998.66
2019-04-25T09:56:39.040Z,100002.37
2019-04-25T09:59:27.394Z,99996.92
2019-04-25T10:01:51.197Z,100006.77
2019-04-25T10:04:22.947Z,99999.78
2019-04-25T10:06:53.451Z,100000.48
2019-04-25T10:09:23.806Z,100012.86
2019-04-25T10:11:54.637Z,100003.75
2019-04-25T10:14:34.464Z,100001.38
2019-04-25T10:17:04.155Z,99997.19
2019-04-25T10:19:34.493Z,100005.44
2019-04-25T10:22:04.214Z,100004.33
2019-04-25T10:24:33.749Z,99999.67
2019-04-25T10:27:03.752Z,99990.73
2019-04-25T10:29:41.197Z,99994.50
2019-04-25T10:32:04.770Z,99994.48
2019-04-25T10:34:34.374Z,99994.19
2019-04-25T10:37:03.909Z,99994.36
2019-04-25T10:39:34.138Z,99992.05
2019-04-25T10:42:03.745Z,99979.92
2019-04-25T10:44:33.829Z,99989.22
2019-04-25T10:47:03.472Z,99976.73
2019-04-25T10:49:34.458Z,99970.62
2019-04-25T10:52:04.996Z,99960.48
2019-04-25T10:54:35.163Z,99968.17
2019-04-25T10:57:06.467Z,99969.75
2019-04-25T10:59:36.264Z,99970.58
2019-04-25T11:02:05.772Z,99967.13
2019-04-25T11:04:36.987Z,99971.50
2019-04-25T11:07:06.498Z,99959.48
2019-04-25T11:09:36.051Z,99970.27
2019-04-25T11:12:09.479Z,99942.89
2019-04-25T11:14:39.976Z,99947.33
2019-04-25T11:17:10.400Z,99924.10
2019-04-25T11:19:40.105Z,99929.16
2019-04-25T11:22:10.609Z,99929.19
2019-04-25T11:24:40.153Z,99928.88
2019-04-25T11:27:09.678Z,99925.20
2019-04-25T11:29:39.199Z,99910.93
2019-04-25T11:32:08.960Z,99919.50
2019-04-25T11:34:38.952Z,99918.80
2019-04-25T11:37:08.515Z,99923.07
2019-04-25T11:39:39.859Z,99918.17
2019-04-25T11:42:10.179Z,99926.72
2019-04-25T11:44:39.718Z,99923.22
2019-04-25T11:47:09.507Z,99927.21
2019-04-25T11:49:39.137Z,99927.82
2019-04-25T11:52:08.994Z,99935.96
2019-04-25T11:54:38.614Z,99938.69
2019-04-25T11:57:08.223Z,99949.87
2019-04-25T11:59:37.898Z,99945.52
2019-04-25T12:02:09.162Z,99935.21
2019-04-25T12:04:38.697Z,99931.45
2019-04-25T12:07:09.275Z,99940.89
2019-04-25T12:09:39.031Z,99942.57
2019-04-25T12:12:08.727Z,99949.03
2019-04-25T12:14:38.326Z,99945.05
2019-04-25T12:17:07.847Z,99924.45
2019-04-25T12:19:38.168Z,99914.85
2019-04-25T12:22:07.996Z,99904.05
2019-04-25T12:24:37.848Z,99894.14
2019-04-25T12:27:07.343Z,99893.22
2019-04-25T12:29:38.816Z,99886.63
2019-04-25T12:32:08.265Z,99879.46
2019-04-25T12:34:37.854Z,99869.66
2019-04-25T12:37:07.503Z,99858.11
2019-04-25T12:39:37.113Z,99851.05
2019-04-25T12:42:06.803Z,99847.11
2019-04-25T12:44:37.974Z,99849.69
2019-04-25T12:47:09.218Z,99850.72
2019-04-25T12:49:38.749Z,99843.07
2019-04-25T12:52:08.407Z,99845.26
2019-04-25T12:54:38.053Z,99846.09
2019-04-25T12:57:07.760Z,99841.45
2019-04-25T12:59:37.286Z,99849.09
2019-04-25T13:02:06.900Z,99840.12
2019-04-25T13:04:36.600Z,99849.92
2019-04-25T13:07:06.304Z,99841.77
2019-04-25T13:09:35.822Z,99852.77
2019-04-25T13:12:06.020Z,99864.27
2019-04-25T13:14:35.566Z,99863.10
2019-04-25T13:17:08.070Z,99863.92
2019-04-25T13:19:36.454Z,99867.91
2019-04-25T13:22:06.730Z,99859.57
2019-04-25T13:24:36.552Z,99852.77
2019-04-25T13:27:07.896Z,99866.92
2019-04-25T13:29:51.238Z,99864.23
2019-04-25T13:32:38.285Z,99859.41
2019-04-25T13:35:13.589Z,99862.91
2019-04-25T13:37:44.004Z,99861.39
2019-04-25T13:40:16.240Z,99846.09
2019-04-25T13:42:45.176Z,99853.45
2019-04-25T13:45:15.782Z,99845.45
2019-04-25T13:47:45.353Z,99844.78
2019-04-25T13:50:15.529Z,99841.50
2019-04-25T13:52:45.077Z,99834.69
2019-04-25T13:55:14.805Z,99818.55
2019-04-25T13:57:44.330Z,99824.66
2019-04-25T14:00:14.488Z,99813.81
2019-04-25T14:02:44.017Z,99807.64
2019-04-25T14:05:14.698Z,99811.33
2019-04-25T14:07:44.346Z,99805.66
2019-04-25T14:10:14.345Z,99809.49
2019-04-25T14:12:44.257Z,99804.87
2019-04-25T14:15:16.071Z,99810.19
2019-04-25T14:17:50.092Z,99792.55
2019-04-25T14:20:21.901Z,99792.88
2019-04-25T14:22:53.661Z,99780.05
2019-04-25T14:25:26.218Z,99784.03
2019-04-25T14:27:55.053Z,99779.17
2019-04-25T14:30:26.276Z,99781.00
2019-04-25T14:32:55.831Z,99766.16
2019-04-25T14:35:25.500Z,99774.13
2019-04-25T14:37:55.305Z,99761.64
2019-04-25T14:40:26.074Z,99769.11
2019-04-25T14:42:57.094Z,99768.15
2019-04-25T14:45:26.812Z,99763.00
2019-04-25T14:47:56.340Z,99766.81
2019-04-25T14:50:27.154Z,99757.52
2019-04-25T14:52:56.719Z,99758.20
2019-04-25T14:55:43.037Z,99758.02
2019-04-25T14:58:14.433Z,99757.83
2019-04-25T15:00:46.615Z,99752.84
2019-04-25T15:03:16.295Z,99751.16
2019-04-25T15:05:45.900Z,99754.82
2019-04-25T15:08:15.580Z,99749.83
2019-04-25T15:10:45.179Z,99737.84
2019-04-25T15:13:14.776Z,99745.87
2019-04-25T15:15:44.330Z,99755.19
2019-04-25T15:18:14.534Z,99753.52
2019-04-25T15:20:44.336Z,99751.22
2019-04-25T15:23:14.521Z,99750.73
2019-04-25T15:25:44.646Z,99754.88
2019-04-25T15:28:14.257Z,99751.22
2019-04-25T15:30:44.165Z,99750.07
2019-04-25T15:33:14.250Z,99756.92
2019-04-25T15:35:44.988Z,99756.73
2019-04-25T15:38:19.416Z,99761.38
2019-04-25T15:40:53.052Z,99757.41
2019-04-25T15:43:27.654Z,99760.57
2019-04-25T15:46:03.915Z,99771.20
2019-04-25T15:48:33.298Z,99765.06
2019-04-25T15:51:02.882Z,99765.56
2019-04-25T15:53:33.044Z,99763.58
2019-04-25T15:56:02.592Z,99761.56
2019-04-25T15:58:32.692Z,99758.56
2019-04-25T16:01:02.223Z,99747.91
2019-04-25T16:03:32.003Z,99743.59
2019-04-25T16:06:01.511Z,99744.77
2019-04-25T16:08:31.172Z,99740.09
2019-04-25T16:11:01.104Z,99728.79
2019-04-25T16:13:32.210Z,99732.78
2019-04-25T16:16:02.553Z,99727.80
2019-04-25T16:18:32.034Z,99737.30
2019-04-25T16:21:02.388Z,99741.95
2019-04-25T16:23:32.252Z,99744.27
2019-04-25T16:26:01.765Z,99738.95
2019-04-25T16:28:31.744Z,99743.59
2019-04-25T16:31:04.206Z,99738.61
2019-04-25T16:33:33.202Z,99740.09
2019-04-25T16:36:03.021Z,99736.59
2019-04-25T16:38:33.358Z,99726.13
2019-04-25T16:41:02.993Z,99732.10
2019-04-25T16:43:35.196Z,99741.27
2019-04-25T16:46:04.851Z,99745.61
2019-04-25T16:48:34.384Z,99736.97
2019-04-25T16:51:04.132Z,99737.95
2019-04-25T16:53:34.240Z,99744.97
2019-04-25T16:56:04.040Z,99746.62
2019-04-25T16:58:33.614Z,99746.95
2019-04-25T17:01:11.004Z,99742.64
2019-04-25T17:03:41.379Z,99742.66
2019-04-25T17:06:12.323Z,99739.31
2019-04-25T17:08:42.595Z,99739.65
2019-04-25T17:11:12.215Z,99735.82
2019-04-25T17:13:44.013Z,99742.98
2019-04-25T17:16:15.249Z,99736.98
2019-04-25T17:18:49.108Z,99739.16
2019-04-25T17:21:19.637Z,99745.31
2019-04-25T17:23:49.174Z,99752.46
2019-04-25T17:26:18.847Z,99752.30
2019-04-25T17:28:50.028Z,99753.96
2019-04-25T17:31:23.743Z,99765.78
2019-04-25T17:33:54.937Z,99768.27
2019-04-25T17:36:33.755Z,99777.23
2019-04-25T17:39:05.425Z,99792.51
2019-04-25T17:41:34.969Z,99799.48
2019-04-25T17:44:04.646Z,99795.41
2019-04-25T17:46:34.179Z,99807.50
2019-04-25T17:49:03.708Z,99812.30
2019-04-25T17:51:33.404Z,99810.59
2019-04-25T17:54:03.006Z,99820.96
2019-04-25T17:56:33.247Z,99822.07
2019-04-25T17:59:03.288Z,99825.21
2019-04-25T18:01:32.912Z,99824.50
2019-04-25T18:04:04.475Z,99829.98
2019-04-25T18:06:34.387Z,99838.72
2019-04-25T18:09:09.498Z,99856.52
2019-04-25T18:11:40.118Z,99868.78
2019-04-25T18:14:09.843Z,99870.79
2019-04-25T18:16:44.811Z,99866.50
2019-04-25T18:19:14.471Z,99874.36
2019-04-25T18:21:44.985Z,99874.30
2019-04-25T18:24:28.337Z,99875.83
2019-04-25T18:26:59.528Z,99872.11
2019-04-25T18:29:29.410Z,99868.98
2019-04-25T18:31:59.187Z,99864.06
2019-04-25T18:34:33.167Z,99869.91
2019-04-25T18:37:19.442Z,99880.30
2019-04-25T18:39:53.546Z,99893.10
2019-04-25T18:42:25.417Z,99901.13
2019-04-25T18:44:54.975Z,99911.75
2019-04-25T18:47:24.533Z,99911.90
2019-04-25T18:49:54.057Z,99924.48
2019-04-25T18:52:41.558Z,99920.03
2019-04-25T18:55:18.617Z,99922.34
2019-04-25T18:57:55.278Z,99927.00
2019-04-25T19:00:39.179Z,99944.56
2019-04-25T19:03:22.034Z,99953.19
2019-04-25T19:05:53.059Z,99969.53
2019-04-25T19:08:22.616Z,99968.48
2019-04-25T19:10:52.178Z,99979.22
2019-04-25T19:13:22.463Z,99987.13
2019-04-25T19:15:52.266Z,99992.08
2019-04-25T19:18:25.751Z,99997.88
2019-04-25T19:20:55.274Z,100000.89
2019-04-25T19:23:24.903Z,100010.46
2019-04-25T19:25:54.764Z,100005.64
2019-04-25T19:28:24.351Z,100016.95
2019-04-25T19:30:54.248Z,100020.59
2019-04-25T19:33:35.000Z,100026.77
2019-04-25T19:35:55.255Z,100027.65
2019-04-25T19:38:24.872Z,100031.73
2019-04-25T19:41:04.888Z,100037.59
2019-04-25T19:43:48.629Z,100041.64
2019-04-25T19:46:18.152Z,100044.75
2019-04-25T19:48:47.800Z,100050.07
2019-04-25T19:51:17.367Z,100056.41
2019-04-25T19:53:47.113Z,100062.69
2019-04-25T19:56:16.703Z,100067.59
2019-04-25T19:58:46.522Z,100067.41
2019-04-25T20:01:16.275Z,100067.40
2019-04-25T20:04:03.337Z,100079.19
2019-04-25T20:06:51.571Z,100092.44
2019-04-25T20:09:33.527Z,100086.67
2019-04-25T20:12:04.112Z,100084.67
2019-04-25T20:14:34.104Z,100083.53
2019-04-25T20:17:03.630Z,100100.25
2019-04-25T20:19:33.158Z,100106.62
2019-04-25T20:22:02.726Z,100107.69
2019-04-25T20:24:32.346Z,100105.80
2019-04-25T20:27:01.969Z,100122.23
2019-04-25T20:29:31.493Z,100116.79
2019-04-25T20:32:01.044Z,100111.28
2019-04-25T20:34:30.561Z,100107.80
2019-04-25T20:37:00.107Z,100099.28
2019-04-25T20:39:29.975Z,100100.73
2019-04-25T20:42:03.893Z,100101.58
2019-04-25T20:44:30.952Z,100098.23
2019-04-25T20:47:00.464Z,100094.61
2019-04-25T20:49:30.021Z,100108.98
2019-04-25T20:51:59.692Z,100106.97
2019-04-25T20:54:29.548Z,100100.70
2019-04-25T20:56:59.410Z,100097.00
2019-04-25T20:59:29.027Z,100098.33
2019-04-25T21:01:58.560Z,100103.11
2019-04-25T21:04:41.552Z,100098.20
2019-04-25T21:07:11.785Z,100108.27
2019-04-25T21:09:41.318Z,100109.32
2019-04-25T21:12:10.913Z,100114.37
2019-04-25T21:15:00.272Z,100112.23
2019-04-25T21:17:34.145Z,100126.95
2019-04-25T21:20:06.302Z,100134.95
2019-04-25T21:22:36.139Z,100136.83
2019-04-25T21:25:07.205Z,100134.89
2019-04-25T21:27:36.840Z,100131.69
2019-04-25T21:30:08.161Z,100130.09
2019-04-25T21:32:53.750Z,100121.52
2019-04-25T21:35:24.157Z,100126.62
2019-04-25T21:37:53.930Z,100121.34
2019-04-25T21:40:28.951Z,100118.84
2019-04-25T21:43:00.441Z,100127.36
2019-04-25T21:45:30.660Z,100132.77
2019-04-25T21:48:00.791Z,100137.01
2019-04-25T21:50:30.647Z,100130.90
2019-04-25T21:53:01.288Z,100130.99
2019-04-25T21:55:31.272Z,100130.55
2019-04-25T21:58:02.066Z,100127.23
2019-04-25T22:00:48.925Z,100125.55
2019-04-25T22:03:21.145Z,100139.41
2019-04-25T22:05:50.984Z,100124.60
2019-04-25T22:08:20.521Z,100117.84
2019-04-25T22:10:50.064Z,100119.31
2019-04-25T22:13:19.657Z,100124.10
2019-04-25T22:15:49.810Z,100121.31
2019-04-25T22:18:19.691Z,100129.89
2019-04-25T22:20:49.259Z,100136.81
2019-04-25T22:23:19.226Z,100151.41
2019-04-25T22:25:49.216Z,100152.78
2019-04-25T22:28:19.132Z,100163.08
2019-04-25T22:30:50.713Z,100174.70
2019-04-25T22:33:24.707Z,100176.11
2019-04-25T22:35:55.881Z,100179.20
2019-04-25T22:38:25.780Z,100176.16
2019-04-25T22:40:55.318Z,100171.66
2019-04-25T22:43:26.079Z,100173.09
2019-04-25T22:45:55.829Z,100171.91
2019-04-25T22:48:27.361Z,100161.77
2019-04-25T22:50:57.085Z,100168.47
2019-04-25T22:53:26.801Z,100171.91
2019-04-25T22:55:56.785Z,100170.21
2019-04-25T22:58:26.358Z,100170.94
2019-04-25T23:00:56.089Z,100161.31
2019-04-25T23:03:36.229Z,100166.95
2019-04-25T23:06:05.877Z,100170.17
2019-04-25T23:08:35.396Z,100168.71
2019-04-25T23:11:05.097Z,100171.38
2019-04-25T23:13:34.991Z,100168.02
2019-04-25T23:16:05.112Z,100160.09
2019-04-25T23:18:34.932Z,100169.28
2019-04-25T23:21:05.547Z,100169.08
2019-04-25T23:23:35.834Z,100169.72
2019-04-25T23:26:16.072Z,100171.22
2019-04-25T23:28:46.909Z,100155.97
2019-04-25T23:31:18.085Z,100155.16
2019-04-25T23:33:47.621Z,100141.00
2019-04-25T23:36:17.241Z,100156.00
2019-04-25T23:38:47.194Z,100151.52
2019-04-25T23:41:16.974Z,100150.84
2019-04-25T23:43:46.531Z,100143.55
2019-04-25T23:46:16.338Z,100133.41
2019-04-25T23:48:45.986Z,100132.69
2019-04-25T23:51:15.542Z,100132.44
2019-04-25T23:53:45.257Z,100127.05
2019-04-25T23:56:15.267Z,100125.82
2019-04-25T23:58:45.275Z,100122.59
